EPKT

Katowice International Airport

Airport
ICAO code
EPKT
IATA Code
KTW
Summary
ICAO Region
EUR
ICAO Territory
Location

Pyrzowice, Silesia

Serving
Katowice
Elevation
997 ft
Coordinates
50° 28' 22" N , 19° 4' 33" E
Metar
Observation
EPKT 271500Z 03008KT 9999 BKN029 M00/M06 Q1019
Station
Katowice
Date/Time
2023-01-27 15:00:00
Wind direction
30°
Wind speed
08 kts
Lowest cloud amount
broken clouds
Temperature
-0°C
Dew point
-6°C
Humidity
63%
QNH
1019 hPa
Weather condition
n/a

Runways

Designator Length Width Surface Rops
9/27 2799 59 CON Yes/Yes

Airport map

Aerial View

Airport accidents

SKYbrary Partners:

Safety knowledge contributed by: